Portada
METAR-TAF:

METAR-TAF

Aeroports :

Vientiane, Laos

latitud: 17-57N, longitud: 102-34E, altitud: 171 m

Observació

L'informe es va fer fa 3 hores i 47 minuts, a les 16:00 UTC
Vent 2 kt del Oest/Nord-Oest
Temperatura 25°C
Humitat 79%
Pressió 1009 hPa
Visibilitat: 3000 m
boirina

METAR: VLVT 211600Z 30002KT 3000 BR NSC 25/21 Q1009 NOSIG

Hora: 02:47 (19:47 UTC)

Pronòstic

L'informe es va fer fa 2 hores i 47 minuts, a les 17:00 UTC
Pronòstic vàlid del 21 a les 18 UTC al 22 a les 18 UTC
Vent 4 kt del Oest/Nord-Oest
Visibilitat: 4000 m
Escasses núvols a una alçada de 5000 ft
Núvols disperses a una alçada de 10000 ft
boirina

TAF: VLVT 211700Z 2118/2218 30004KT 4000 BR FEW050 SCT100

Observacions i pronòstics meteorològics de més de 4000 aeroports (METAR i TAF).

Les estacions disponibles són els punts grocs i vermells al mapa.

Posi el ratolí al punt desitjat per veure el nom de l'estació.

Feu clic per veure les observacions i els pronòstics meteorològics.

Per canviar el mapa: feu clic els botons verds amb una creu de color negre per apropar; al botó verd amb un guió per allunyar la imatge; o en les fletxes verdes per a mapes adjacents.


METAR-TAF: